DW7431 Cala Millor ES current weather conditions

sailwx.info

Wind from 180 at 7 knots gusting 7

Air temperature 33.9° C
Dewpoint 20.6° C

Last reported at 2014-Jul-28 14:01 UTC.
Time now 2014-Jul-28 18:30 UTC

Location: N 39°36' E 003°22'.
View on Google Maps.

See reports from other nearby stations

  
Tides and Currents Weather Stations Pressure Air Temp Water Temp Dewpoint Dewpoint Depression Visibility Wind Speed Wind Dir Waves Ship Positions
date/time (UTC)wind fromknots sea level pressurealtimeterstation pressurevisibilityair tempwater tempwave heightnotes
2014-Jul-28 14:01 180 7 gusting 7 33.9
2014-Jul-28 13:01 270 8 gusting 7 35.0
2014-Jul-28 12:01 225 8 gusting 9 34.4
2014-Jul-28 11:01 202 8 gusting 15 33.3
2014-Jul-28 10:01 247 6 gusting 13 32.2
2014-Jul-28 06:01 292 2 gusting 3 24.4
2014-Jul-28 04:01 022 24.4
2014-Jul-28 03:01 067 24.4
2014-Jul-28 01:01 315 25.6
2014-Jul-27 22:01 225 1 gusting 1 26.7
2014-Jul-27 19:01 180 5 gusting 6 28.3
2014-Jul-27 18:01 180 6 gusting 7 28.9
2014-Jul-27 15:02 202 6 gusting 12 34.4
2014-Jul-27 14:01 202 6 gusting 12 35.6
2014-Jul-27 12:01 135 5 gusting 5 33.9
2014-Jul-27 11:01 135 5 gusting 6 33.3
2014-Jul-27 10:01 112 4 gusting 9 32.8
2014-Jul-27 09:01 135 5 gusting 8 31.1
2014-Jul-27 08:01 225 1 gusting 6 30.0
2014-Jul-27 07:01 337 3 gusting 4 26.1
2014-Jul-27 05:01 292 23.3
2014-Jul-27 04:01 292 23.9
2014-Jul-27 03:01 202 23.9
2014-Jul-27 00:01 315 25.0
2014-Jul-26 21:01 045 26.7
2014-Jul-26 18:01 112 5 gusting 6 28.9